Time;durP1;ratioP1;P1;durP2;ratioP2;P2;SDS_P1;SDS_P2;PMS_P1;PMS_P2;Temp;Humidity;BMP_temperature;BMP_pressure;BME280_temperature;BME280_humidity;BME280_pressure;Samples;Min_cycle;Max_cycle;Signal;HPM_P1;HPM_P2
2024/03/08 00:02:16;;;;;;;2.72;2.00;;;;;;;;;;5013225;28;20065;-63
2024/03/08 00:04:42;;;;;;;2.72;1.98;;;;;;;;;;5013454;28;20051;-61
2024/03/08 00:07:07;;;;;;;2.40;1.90;;;;;;;;;;5014162;28;20557;-60
2024/03/08 00:09:34;;;;;;;2.72;2.13;;;;;;;;;;5014558;28;20711;-61
2024/03/08 00:11:59;;;;;;;2.47;1.90;;;;;;;;;;5013156;28;20064;-62
2024/03/08 00:14:24;;;;;;;2.70;1.98;;;;;;;;;;5012369;28;20038;-63
2024/03/08 00:16:50;;;;;;;2.72;2.10;;;;;;;;;;5029297;28;20043;-61
2024/03/08 00:19:15;;;;;;;2.85;2.00;;;;;;;;;;5026995;28;20162;-60
2024/03/08 00:21:42;;;;;;;2.70;1.88;;;;;;;;;;5022954;28;20432;-63
2024/03/08 00:24:07;;;;;;;3.28;2.40;;;;;;;;;;5023962;28;20080;-62
2024/03/08 00:26:39;;;;;;;2.35;1.60;;;;;;;;;;5027981;28;20041;-64
2024/03/08 00:29:04;;;;;;;3.35;2.20;;;;;;;;;;5010052;28;20034;-61
2024/03/08 00:31:30;;;;;;;3.08;1.85;;;;;;;;;;5020683;28;20551;-61
2024/03/08 00:33:56;;;;;;;2.42;1.98;;;;;;;;;;5028981;28;20033;-65
2024/03/08 00:36:22;;;;;;;2.50;1.90;;;;;;;;;;5026506;28;20504;-61
2024/03/08 00:38:47;;;;;;;3.28;2.33;;;;;;;;;;5028342;28;20064;-62
2024/03/08 00:41:12;;;;;;;2.55;1.83;;;;;;;;;;5024910;28;20026;-64
2024/03/08 00:43:38;;;;;;;3.13;2.20;;;;;;;;;;5021247;28;20044;-61
2024/03/08 00:46:03;;;;;;;2.58;1.98;;;;;;;;;;5027744;28;20033;-63
2024/03/08 00:48:28;;;;;;;2.67;1.90;;;;;;;;;;5024958;28;20073;-61
2024/03/08 00:50:54;;;;;;;2.22;1.90;;;;;;;;;;5019112;28;20038;-61
2024/03/08 00:53:19;;;;;;;3.83;2.10;;;;;;;;;;5031706;28;20036;-61
2024/03/08 00:55:46;;;;;;;3.10;2.40;;;;;;;;;;5031304;28;20059;-62
2024/03/08 00:58:11;;;;;;;3.25;2.30;;;;;;;;;;5031468;28;20041;-63
2024/03/08 01:00:38;;;;;;;2.50;2.00;;;;;;;;;;5019296;28;20136;-72
2024/03/08 01:03:04;;;;;;;3.70;1.90;;;;;;;;;;5032771;28;20061;-69
2024/03/08 01:05:29;;;;;;;2.47;1.70;;;;;;;;;;5024783;28;20867;-67
2024/03/08 01:07:55;;;;;;;2.42;2.00;;;;;;;;;;5031072;28;20505;-61
2024/03/08 01:10:20;;;;;;;2.60;1.90;;;;;;;;;;5015965;28;20874;-62
2024/03/08 01:12:45;;;;;;;2.55;1.77;;;;;;;;;;5031087;28;20516;-62
2024/03/08 01:15:11;;;;;;;2.78;1.70;;;;;;;;;;5026502;28;20037;-66
2024/03/08 01:17:36;;;;;;;3.25;1.95;;;;;;;;;;5028654;28;20076;-66
2024/03/08 01:20:10;;;;;;;2.45;1.70;;;;;;;;;;5031017;28;20045;-61
2024/03/08 01:22:36;;;;;;;2.58;1.65;;;;;;;;;;5030655;28;20178;-64
2024/03/08 01:25:04;;;;;;;2.35;1.75;;;;;;;;;;5027442;28;20069;-68
2024/03/08 01:27:29;;;;;;;2.17;1.60;;;;;;;;;;5031008;28;20037;-62
2024/03/08 01:29:55;;;;;;;2.30;1.63;;;;;;;;;;5031459;28;20049;-61
2024/03/08 01:32:22;;;;;;;2.85;1.90;;;;;;;;;;5031211;28;20810;-66
2024/03/08 01:34:48;;;;;;;2.50;1.98;;;;;;;;;;5030677;28;20515;-62
2024/03/08 01:37:14;;;;;;;2.58;1.85;;;;;;;;;;5029709;28;20033;-62
2024/03/08 01:39:39;;;;;;;2.83;2.03;;;;;;;;;;5031408;28;20041;-61
2024/03/08 01:42:05;;;;;;;2.63;1.88;;;;;;;;;;5034308;28;20033;-62
2024/03/08 01:44:31;;;;;;;2.83;1.80;;;;;;;;;;5028030;28;20052;-61
2024/03/08 01:46:56;;;;;;;2.10;1.67;;;;;;;;;;5029874;28;20049;-66
2024/03/08 01:49:22;;;;;;;2.40;1.80;;;;;;;;;;5023401;28;20034;-61
2024/03/08 01:51:48;;;;;;;2.38;1.80;;;;;;;;;;5029305;28;20076;-62
2024/03/08 01:54:13;;;;;;;2.00;1.50;;;;;;;;;;5029806;28;20529;-69
2024/03/08 01:56:39;;;;;;;2.35;1.50;;;;;;;;;;5030819;28;20101;-64
2024/03/08 01:59:05;;;;;;;2.45;1.73;;;;;;;;;;5029201;28;20049;-64
2024/03/08 02:01:31;;;;;;;2.33;1.60;;;;;;;;;;5027677;28;20037;-63
2024/03/08 02:03:56;;;;;;;2.15;1.70;;;;;;;;;;5030155;28;20102;-63
2024/03/08 02:06:21;;;;;;;2.83;2.00;;;;;;;;;;5022688;28;20517;-63
2024/03/08 02:08:47;;;;;;;2.00;1.50;;;;;;;;;;5031759;28;20661;-72
2024/03/08 02:11:12;;;;;;;2.33;1.83;;;;;;;;;;5029571;28;20045;-65
2024/03/08 02:13:38;;;;;;;2.40;1.70;;;;;;;;;;5031558;28;20290;-62
2024/03/08 02:16:04;;;;;;;2.22;1.70;;;;;;;;;;5029897;28;20041;-70
2024/03/08 02:18:30;;;;;;;2.25;1.60;;;;;;;;;;5030706;28;20049;-67
2024/03/08 02:20:56;;;;;;;2.08;1.42;;;;;;;;;;5025182;28;20105;-71
2024/03/08 02:23:21;;;;;;;2.35;1.70;;;;;;;;;;5027228;28;20038;-70
2024/03/08 02:25:47;;;;;;;2.33;1.52;;;;;;;;;;5027772;28;20043;-66
2024/03/08 02:28:12;;;;;;;2.28;1.60;;;;;;;;;;5029065;28;20387;-71
2024/03/08 02:30:46;;;;;;;2.50;1.60;;;;;;;;;;5026924;28;20046;-62
2024/03/08 02:33:13;;;;;;;2.40;1.60;;;;;;;;;;5029227;28;20572;-64
2024/03/08 02:35:38;;;;;;;2.67;1.63;;;;;;;;;;5025105;28;20042;-62
2024/03/08 02:38:04;;;;;;;1.98;1.50;;;;;;;;;;5029983;28;20067;-68
2024/03/08 02:40:29;;;;;;;2.03;1.50;;;;;;;;;;5029779;28;20049;-67
2024/03/08 02:42:54;;;;;;;3.03;1.67;;;;;;;;;;5030505;28;20440;-69
2024/03/08 02:45:20;;;;;;;2.00;1.60;;;;;;;;;;5028390;28;20045;-70
2024/03/08 02:47:46;;;;;;;1.98;1.48;;;;;;;;;;5029562;28;20038;-62
2024/03/08 02:50:11;;;;;;;2.13;1.60;;;;;;;;;;5029823;28;20132;-63
2024/03/08 02:52:37;;;;;;;2.55;1.27;;;;;;;;;;5028615;28;20425;-64
2024/03/08 02:55:02;;;;;;;1.52;1.25;;;;;;;;;;5021544;28;20448;-62
2024/03/08 02:57:27;;;;;;;2.83;1.58;;;;;;;;;;5028389;28;20053;-71
2024/03/08 02:59:56;;;;;;;2.22;1.40;;;;;;;;;;5020341;28;20532;-62
2024/03/08 03:02:23;;;;;;;2.75;1.60;;;;;;;;;;5020460;28;20033;-74
2024/03/08 03:04:48;;;;;;;1.90;1.33;;;;;;;;;;5029008;28;20052;-62
2024/03/08 03:07:14;;;;;;;1.95;1.35;;;;;;;;;;5026080;28;20100;-72
2024/03/08 03:09:39;;;;;;;2.35;1.50;;;;;;;;;;5028684;28;20053;-63
2024/03/08 03:12:04;;;;;;;2.28;1.42;;;;;;;;;;5029757;28;20037;-65
2024/03/08 03:14:30;;;;;;;2.00;1.50;;;;;;;;;;5027378;28;20033;-62
2024/03/08 03:16:55;;;;;;;1.70;1.30;;;;;;;;;;5028875;28;20049;-61
2024/03/08 03:19:20;;;;;;;1.70;1.15;;;;;;;;;;5029876;28;20026;-64
2024/03/08 03:21:46;;;;;;;1.92;1.38;;;;;;;;;;5028603;28;20055;-69
2024/03/08 03:24:12;;;;;;;1.60;1.02;;;;;;;;;;5027172;28;20033;-65
2024/03/08 03:26:38;;;;;;;1.90;1.40;;;;;;;;;;5021484;28;20559;-66
2024/03/08 03:29:13;;;;;;;2.00;1.40;;;;;;;;;;5028114;28;20038;-61
2024/03/08 03:31:40;;;;;;;2.03;1.25;;;;;;;;;;5029059;28;20037;-61
2024/03/08 03:34:08;;;;;;;1.73;1.40;;;;;;;;;;5028023;28;20034;-65
2024/03/08 03:36:35;;;;;;;2.25;1.50;;;;;;;;;;5028730;28;20048;-64
2024/03/08 03:39:10;;;;;;;1.77;1.30;;;;;;;;;;5028167;28;20481;-67
2024/03/08 03:41:36;;;;;;;1.70;1.30;;;;;;;;;;5027732;28;20104;-63
2024/03/08 03:44:01;;;;;;;1.98;1.30;;;;;;;;;;5027344;28;20482;-66
2024/03/08 03:46:27;;;;;;;1.60;1.30;;;;;;;;;;5029085;28;20527;-64
2024/03/08 03:48:52;;;;;;;2.03;1.27;;;;;;;;;;5028059;28;20030;-62
2024/03/08 03:51:21;;;;;;;1.58;1.25;;;;;;;;;;5028178;28;20025;-62
2024/03/08 03:53:46;;;;;;;1.63;1.20;;;;;;;;;;5026631;28;20029;-62
2024/03/08 03:56:12;;;;;;;2.17;1.52;;;;;;;;;;5027805;28;20086;-64
2024/03/08 03:58:37;;;;;;;1.80;1.23;;;;;;;;;;5029299;28;20040;-65
2024/03/08 04:01:04;;;;;;;1.90;1.40;;;;;;;;;;5014782;28;20113;-65
2024/03/08 04:03:29;;;;;;;2.30;1.52;;;;;;;;;;5026574;28;20416;-62
2024/03/08 04:05:55;;;;;;;2.25;1.30;;;;;;;;;;5017976;28;20044;-64
2024/03/08 04:08:20;;;;;;;1.90;1.20;;;;;;;;;;5022939;28;20021;-63
2024/03/08 04:10:45;;;;;;;1.45;1.10;;;;;;;;;;5021182;28;20037;-67
2024/03/08 04:15:54;;;;;;;1.90;1.20;;;;;;;;;;5024941;28;20860;-63
2024/03/08 04:18:20;;;;;;;1.67;1.10;;;;;;;;;;5024736;28;20135;-66
2024/03/08 04:20:45;;;;;;;1.65;1.30;;;;;;;;;;5029066;28;20038;-63
2024/03/08 04:23:10;;;;;;;1.73;1.13;;;;;;;;;;5026405;28;20040;-63
2024/03/08 04:25:36;;;;;;;1.50;1.10;;;;;;;;;;5028135;28;20032;-63
2024/03/08 04:28:01;;;;;;;1.60;1.30;;;;;;;;;;5030066;28;20749;-63
2024/03/08 04:30:28;;;;;;;2.03;1.23;;;;;;;;;;5030577;28;20539;-69
2024/03/08 04:32:53;;;;;;;1.40;0.90;;;;;;;;;;5031070;28;20087;-62
2024/03/08 04:35:20;;;;;;;1.38;1.08;;;;;;;;;;5031216;28;20029;-68
2024/03/08 04:37:45;;;;;;;1.60;1.10;;;;;;;;;;5031912;28;20068;-64
2024/03/08 04:40:11;;;;;;;1.30;1.10;;;;;;;;;;5029372;28;20037;-63
2024/03/08 04:42:36;;;;;;;1.83;1.10;;;;;;;;;;5027254;28;20053;-61
2024/03/08 04:45:02;;;;;;;1.63;1.10;;;;;;;;;;5030846;28;20081;-61
2024/03/08 04:47:27;;;;;;;1.30;1.00;;;;;;;;;;5027017;28;20090;-63
2024/03/08 04:49:53;;;;;;;1.50;1.10;;;;;;;;;;5029785;28;20033;-62
2024/03/08 04:52:18;;;;;;;1.77;1.20;;;;;;;;;;5026776;28;20034;-71
2024/03/08 04:54:44;;;;;;;1.40;1.05;;;;;;;;;;5022084;28;20080;-67
2024/03/08 04:57:10;;;;;;;1.45;1.00;;;;;;;;;;5024700;28;20030;-61
2024/03/08 04:59:36;;;;;;;1.50;1.20;;;;;;;;;;5024915;28;20131;-70
2024/03/08 05:02:01;;;;;;;1.38;0.95;;;;;;;;;;5029682;28;20197;-67
2024/03/08 05:04:26;;;;;;;1.67;1.00;;;;;;;;;;5030285;28;20064;-67
2024/03/08 05:06:53;;;;;;;0.98;0.80;;;;;;;;;;5028123;28;20038;-62
2024/03/08 05:09:19;;;;;;;1.40;0.90;;;;;;;;;;5027177;28;20099;-64
2024/03/08 05:11:44;;;;;;;1.90;1.00;;;;;;;;;;5024638;28;20057;-71
2024/03/08 05:14:10;;;;;;;1.20;0.88;;;;;;;;;;5027128;28;20112;-62
2024/03/08 05:16:35;;;;;;;1.27;0.73;;;;;;;;;;5025218;28;20037;-66
2024/03/08 05:19:01;;;;;;;1.20;0.80;;;;;;;;;;5026510;28;20049;-62
2024/03/08 05:21:28;;;;;;;1.45;0.82;;;;;;;;;;5027188;28;20555;-66
2024/03/08 05:23:54;;;;;;;1.60;0.80;;;;;;;;;;5030186;28;20034;-63
2024/03/08 05:26:19;;;;;;;1.27;0.80;;;;;;;;;;5027131;28;20561;-64
2024/03/08 05:28:44;;;;;;;0.93;0.80;;;;;;;;;;5029397;28;20030;-65
2024/03/08 05:31:28;;;;;;;1.33;0.98;;;;;;;;;;5030358;28;20030;-62
2024/03/08 05:33:55;;;;;;;4.50;1.00;;;;;;;;;;5029299;28;20034;-66
2024/03/08 05:36:20;;;;;;;1.52;0.82;;;;;;;;;;5025692;28;20106;-61
2024/03/08 05:38:45;;;;;;;1.27;0.80;;;;;;;;;;5028114;28;20041;-63
2024/03/08 05:41:20;;;;;;;1.00;0.70;;;;;;;;;;5018802;28;20034;-61
2024/03/08 05:43:45;;;;;;;1.20;0.73;;;;;;;;;;5025615;28;20088;-64
2024/03/08 05:46:11;;;;;;;1.30;0.80;;;;;;;;;;5027690;28;20072;-62
2024/03/08 05:48:37;;;;;;;1.17;0.70;;;;;;;;;;5029600;28;20045;-66
2024/03/08 05:51:02;;;;;;;1.42;0.70;;;;;;;;;;5023802;28;20037;-62
2024/03/08 05:53:31;;;;;;;1.02;0.63;;;;;;;;;;5029706;28;20374;-69
2024/03/08 05:55:56;;;;;;;1.42;0.60;;;;;;;;;;5025262;28;20755;-64
2024/03/08 05:58:22;;;;;;;1.42;0.82;;;;;;;;;;5025561;28;20058;-62
2024/03/08 06:00:47;;;;;;;1.33;0.73;;;;;;;;;;5014887;28;20037;-67
2024/03/08 06:03:13;;;;;;;1.35;0.90;;;;;;;;;;5014041;28;22004;-62
2024/03/08 06:05:41;;;;;;;1.35;0.70;;;;;;;;;;5015965;28;20050;-69
2024/03/08 06:08:07;;;;;;;1.13;0.70;;;;;;;;;;5017761;28;20045;-69
2024/03/08 06:10:32;;;;;;;2.08;0.90;;;;;;;;;;5015391;28;20044;-62
2024/03/08 06:12:58;;;;;;;1.20;0.80;;;;;;;;;;5012847;28;20049;-70
2024/03/08 06:15:23;;;;;;;1.13;0.70;;;;;;;;;;5014003;28;20033;-62
2024/03/08 06:17:49;;;;;;;1.20;0.90;;;;;;;;;;5022657;28;20500;-63
2024/03/08 06:20:14;;;;;;;0.90;0.63;;;;;;;;;;5017560;28;20045;-65
2024/03/08 06:22:40;;;;;;;1.27;0.63;;;;;;;;;;5015409;28;20096;-68
2024/03/08 06:25:06;;;;;;;0.90;0.70;;;;;;;;;;5015168;28;20551;-63
2024/03/08 06:27:38;;;;;;;1.23;0.70;;;;;;;;;;5012996;28;20109;-64
2024/03/08 06:30:04;;;;;;;0.98;0.70;;;;;;;;;;5012584;28;20045;-62
2024/03/08 06:32:30;;;;;;;1.00;0.80;;;;;;;;;;5013956;28;20068;-68
2024/03/08 06:34:55;;;;;;;1.15;0.70;;;;;;;;;;5016559;28;20073;-63
2024/03/08 06:37:21;;;;;;;1.30;0.80;;;;;;;;;;5016429;28;20056;-71
2024/03/08 06:39:51;;;;;;;1.08;0.60;;;;;;;;;;5016829;28;20056;-64
2024/03/08 06:42:16;;;;;;;1.05;0.85;;;;;;;;;;5013313;28;20038;-65
2024/03/08 06:44:50;;;;;;;1.08;0.60;;;;;;;;;;5014334;28;20033;-61
2024/03/08 06:47:16;;;;;;;1.15;0.70;;;;;;;;;;5012928;28;20056;-64
2024/03/08 06:49:45;;;;;;;3.08;0.82;;;;;;;;;;5012556;28;20125;-67
2024/03/08 06:52:10;;;;;;;2.45;0.65;;;;;;;;;;5014551;28;20034;-64
2024/03/08 06:54:36;;;;;;;1.45;0.93;;;;;;;;;;5013778;28;20030;-62
2024/03/08 06:57:03;;;;;;;1.05;0.63;;;;;;;;;;5015506;28;20053;-66
2024/03/08 06:59:28;;;;;;;1.58;0.80;;;;;;;;;;5016524;28;20218;-68
2024/03/08 07:01:54;;;;;;;1.23;0.75;;;;;;;;;;5016502;28;20045;-63
2024/03/08 07:04:20;;;;;;;1.65;0.85;;;;;;;;;;5012994;28;20040;-71
2024/03/08 07:06:45;;;;;;;1.48;0.70;;;;;;;;;;5015894;28;20037;-69
2024/03/08 07:09:11;;;;;;;2.42;0.80;;;;;;;;;;5014137;28;20730;-63
2024/03/08 07:11:37;;;;;;;2.15;0.70;;;;;;;;;;5012847;28;20220;-63
2024/03/08 07:14:05;;;;;;;1.70;0.90;;;;;;;;;;5018680;28;20113;-63
2024/03/08 07:16:30;;;;;;;2.63;0.85;;;;;;;;;;5026731;28;20051;-67
2024/03/08 07:18:56;;;;;;;1.75;0.80;;;;;;;;;;5020739;28;20133;-62
2024/03/08 07:21:22;;;;;;;1.40;0.80;;;;;;;;;;5022241;28;20040;-74
2024/03/08 07:24:02;;;;;;;1.55;0.65;;;;;;;;;;5027483;28;20420;-64
2024/03/08 07:26:28;;;;;;;1.42;0.70;;;;;;;;;;5024727;28;20127;-65
2024/03/08 07:28:56;;;;;;;1.33;0.77;;;;;;;;;;5031355;28;20028;-62
2024/03/08 07:31:31;;;;;;;2.35;0.80;;;;;;;;;;5027315;28;20028;-63
2024/03/08 07:33:58;;;;;;;1.88;0.70;;;;;;;;;;5032397;28;20048;-64
2024/03/08 07:36:24;;;;;;;1.67;0.90;;;;;;;;;;5028987;28;20180;-69
2024/03/08 07:38:49;;;;;;;1.63;0.60;;;;;;;;;;5024033;28;20547;-66
2024/03/08 07:41:15;;;;;;;1.10;0.77;;;;;;;;;;5020146;28;20041;-62
2024/03/08 07:43:40;;;;;;;1.55;0.80;;;;;;;;;;5016229;28;20049;-66
2024/03/08 07:46:06;;;;;;;1.48;0.90;;;;;;;;;;5015171;28;20080;-66
2024/03/08 07:48:31;;;;;;;1.15;0.60;;;;;;;;;;5016817;28;20097;-63
2024/03/08 07:50:56;;;;;;;1.63;0.63;;;;;;;;;;5024423;28;20499;-65
2024/03/08 07:53:24;;;;;;;1.48;0.90;;;;;;;;;;5029641;28;20034;-65
2024/03/08 07:55:49;;;;;;;2.03;0.60;;;;;;;;;;5028108;28;20167;-66
2024/03/08 07:58:15;;;;;;;2.20;0.80;;;;;;;;;;5026499;28;20080;-63
2024/03/08 08:00:42;;;;;;;1.42;0.70;;;;;;;;;;5028277;28;20040;-62
2024/03/08 08:03:08;;;;;;;1.10;0.70;;;;;;;;;;5025881;28;20037;-61
2024/03/08 08:05:35;;;;;;;2.30;0.95;;;;;;;;;;5028502;28;20099;-68
2024/03/08 08:08:03;;;;;;;1.50;0.82;;;;;;;;;;5022529;28;20071;-65
2024/03/08 08:10:32;;;;;;;1.13;0.70;;;;;;;;;;5022582;28;20041;-63
2024/03/08 08:12:57;;;;;;;2.38;0.75;;;;;;;;;;5025200;28;20515;-66
2024/03/08 08:15:23;;;;;;;1.20;0.73;;;;;;;;;;5024237;28;20463;-65
2024/03/08 08:17:48;;;;;;;1.58;0.85;;;;;;;;;;5026005;28;20045;-62
2024/03/08 08:20:13;;;;;;;2.35;0.80;;;;;;;;;;5021560;28;20056;-63
2024/03/08 08:22:45;;;;;;;1.77;0.90;;;;;;;;;;5027317;28;20044;-65
2024/03/08 08:25:15;;;;;;;1.40;0.70;;;;;;;;;;5022291;28;20030;-62
2024/03/08 08:27:42;;;;;;;;;;;;;;;;;;5018636;28;20096;-63
2024/03/08 08:30:08;;;;;;;2.00;0.75;;;;;;;;;;5025790;28;20327;-65
2024/03/08 08:32:34;;;;;;;1.25;0.73;;;;;;;;;;5026975;28;20041;-62
2024/03/08 08:35:00;;;;;;;1.52;0.90;;;;;;;;;;5027684;28;20033;-61
2024/03/08 08:37:25;;;;;;;1.48;0.80;;;;;;;;;;5026933;28;20119;-61
2024/03/08 08:39:51;;;;;;;2.55;1.00;;;;;;;;;;5025590;28;20038;-68
2024/03/08 08:42:17;;;;;;;1.17;0.70;;;;;;;;;;5021575;28;20033;-62
2024/03/08 08:44:50;;;;;;;1.30;0.75;;;;;;;;;;5020434;28;20068;-61
2024/03/08 08:47:18;;;;;;;1.10;0.70;;;;;;;;;;5021239;28;20440;-62
2024/03/08 08:49:47;;;;;;;1.85;1.10;;;;;;;;;;5020234;28;20544;-61
2024/03/08 08:52:13;;;;;;;1.55;0.82;;;;;;;;;;5021478;28;20038;-65
2024/03/08 08:54:38;;;;;;;1.05;0.73;;;;;;;;;;5021633;28;20033;-60
2024/03/08 08:57:07;;;;;;;3.65;0.98;;;;;;;;;;5021886;28;20349;-65
2024/03/08 08:59:33;;;;;;;1.50;0.80;;;;;;;;;;5017908;28;20812;-66
2024/03/08 09:01:58;;;;;;;1.33;0.77;;;;;;;;;;5022390;28;20057;-61
2024/03/08 09:04:24;;;;;;;1.10;0.70;;;;;;;;;;5027014;28;20145;-62
2024/03/08 09:06:49;;;;;;;1.58;0.77;;;;;;;;;;5017080;28;20052;-62
2024/03/08 09:09:14;;;;;;;1.48;0.80;;;;;;;;;;5009311;28;20081;-62
2024/03/08 09:11:42;;;;;;;1.45;0.90;;;;;;;;;;5014438;28;20420;-61
2024/03/08 09:14:08;;;;;;;1.75;0.80;;;;;;;;;;5017263;28;20037;-61
2024/03/08 09:16:34;;;;;;;1.70;0.93;;;;;;;;;;5019734;28;20045;-61
2024/03/08 09:18:59;;;;;;;1.80;0.80;;;;;;;;;;5021335;28;20145;-64
2024/03/08 09:21:27;;;;;;;1.00;0.63;;;;;;;;;;5028679;28;20036;-67
2024/03/08 09:23:52;;;;;;;2.20;0.88;;;;;;;;;;5030731;28;20052;-68
2024/03/08 09:26:17;;;;;;;1.73;0.77;;;;;;;;;;5031662;28;20139;-66
2024/03/08 09:28:43;;;;;;;1.60;0.88;;;;;;;;;;5024293;28;20074;-66
2024/03/08 09:31:11;;;;;;;3.15;0.95;;;;;;;;;;5032492;28;20489;-68
2024/03/08 09:33:36;;;;;;;1.42;0.80;;;;;;;;;;5029521;28;20042;-72
2024/03/08 09:36:03;;;;;;;1.33;0.75;;;;;;;;;;5031672;28;20096;-65
2024/03/08 09:38:29;;;;;;;1.98;0.90;;;;;;;;;;5026721;28;20064;-71
2024/03/08 09:40:56;;;;;;;1.20;0.70;;;;;;;;;;5030208;28;20501;-67
2024/03/08 09:43:23;;;;;;;1.40;0.90;;;;;;;;;;5031140;28;20121;-66
2024/03/08 09:45:49;;;;;;;1.52;0.80;;;;;;;;;;5030488;28;20143;-63
2024/03/08 09:48:15;;;;;;;1.90;0.63;;;;;;;;;;5029806;28;20080;-65
2024/03/08 09:50:41;;;;;;;1.00;0.70;;;;;;;;;;5031488;28;20564;-65
2024/03/08 09:53:08;;;;;;;1.27;0.80;;;;;;;;;;5030770;28;20053;-71
2024/03/08 09:55:36;;;;;;;1.85;0.80;;;;;;;;;;5031916;28;20578;-72
2024/03/08 10:00:45;;;;;;;1.50;0.73;;;;;;;;;;5032637;28;20056;-64
2024/03/08 10:03:11;;;;;;;2.20;0.70;;;;;;;;;;5024988;28;20504;-67
2024/03/08 10:05:36;;;;;;;1.63;0.80;;;;;;;;;;5028816;28;20472;-70
2024/03/08 10:08:01;;;;;;;1.15;0.70;;;;;;;;;;5030413;28;20526;-66
2024/03/08 10:10:37;;;;;;;1.88;0.80;;;;;;;;;;5031434;28;20398;-64
2024/03/08 10:13:02;;;;;;;1.58;0.70;;;;;;;;;;5025383;28;20508;-64
2024/03/08 10:15:34;;;;;;;1.98;0.90;;;;;;;;;;5030342;28;20056;-63
2024/03/08 10:18:01;;;;;;;1.52;0.80;;;;;;;;;;5029769;28;20041;-63
2024/03/08 10:20:33;;;;;;;1.10;0.77;;;;;;;;;;5030017;28;20018;-66
2024/03/08 10:23:04;;;;;;;1.25;0.82;;;;;;;;;;5029856;28;20049;-64
2024/03/08 10:25:36;;;;;;;1.63;0.73;;;;;;;;;;5030805;28;20042;-63
2024/03/08 10:28:05;;;;;;;1.00;0.68;;;;;;;;;;5030120;28;20108;-65
2024/03/08 10:30:30;;;;;;;1.73;0.80;;;;;;;;;;5030067;28;20171;-64
2024/03/08 10:32:56;;;;;;;1.45;0.68;;;;;;;;;;5030719;28;20041;-68
2024/03/08 10:35:22;;;;;;;1.73;0.95;;;;;;;;;;5024001;28;20037;-67
2024/03/08 10:37:49;;;;;;;1.35;0.85;;;;;;;;;;5028200;28;20477;-63
2024/03/08 10:40:18;;;;;;;1.40;0.70;;;;;;;;;;5029907;28;20032;-68
2024/03/08 10:43:02;;;;;;;1.40;0.80;;;;;;;;;;5030353;28;20053;-63
2024/03/08 10:45:33;;;;;;;1.38;0.80;;;;;;;;;;5026834;28;20112;-75
2024/03/08 10:48:19;;;;;;;1.80;0.90;;;;;;;;;;5025421;28;20103;-64
2024/03/08 10:50:53;;;;;;;1.70;0.60;;;;;;;;;;5011728;28;20021;-66
2024/03/08 10:53:18;;;;;;;1.30;0.70;;;;;;;;;;5030105;28;20025;-64
2024/03/08 10:55:43;;;;;;;1.33;0.95;;;;;;;;;;5029885;28;20158;-66
2024/03/08 10:58:09;;;;;;;1.30;0.70;;;;;;;;;;5029735;28;20049;-68
2024/03/08 11:00:35;;;;;;;1.70;0.90;;;;;;;;;;5029031;28;20029;-64
2024/03/08 11:03:00;;;;;;;1.35;0.73;;;;;;;;;;5029169;28;20276;-69
2024/03/08 11:05:35;;;;;;;1.02;0.70;;;;;;;;;;5026841;28;20034;-67
2024/03/08 11:08:01;;;;;;;1.45;0.73;;;;;;;;;;5025029;28;20535;-63
2024/03/08 11:10:26;;;;;;;1.13;0.50;;;;;;;;;;5017615;28;20120;-63
2024/03/08 11:12:52;;;;;;;1.27;0.60;;;;;;;;;;5014910;28;20049;-70
2024/03/08 11:15:20;;;;;;;1.20;0.65;;;;;;;;;;5015776;28;20485;-63
2024/03/08 11:17:45;;;;;;;2.15;0.90;;;;;;;;;;5017299;28;20550;-70
2024/03/08 11:20:15;;;;;;;3.83;0.98;;;;;;;;;;5014368;28;20038;-69
2024/03/08 11:22:41;;;;;;;1.20;0.80;;;;;;;;;;5018310;28;20123;-70
2024/03/08 11:25:09;;;;;;;1.65;0.73;;;;;;;;;;5029620;28;20049;-70
2024/03/08 11:27:36;;;;;;;1.55;0.95;;;;;;;;;;5021158;28;20038;-70
2024/03/08 11:30:11;;;;;;;1.42;0.80;;;;;;;;;;5026708;28;20036;-70
2024/03/08 11:32:37;;;;;;;2.10;0.90;;;;;;;;;;5027077;28;20497;-68
2024/03/08 11:35:05;;;;;;;1.50;0.90;;;;;;;;;;5019123;28;20108;-68
2024/03/08 11:37:32;;;;;;;3.53;0.90;;;;;;;;;;5020527;28;20046;-64
2024/03/08 11:40:04;;;;;;;1.75;0.70;;;;;;;;;;5027593;28;20241;-67
2024/03/08 11:42:30;;;;;;;1.67;0.70;;;;;;;;;;5021082;28;20037;-65
2024/03/08 11:44:55;;;;;;;2.08;0.90;;;;;;;;;;5027745;28;20025;-64
2024/03/08 11:47:21;;;;;;;2.78;1.00;;;;;;;;;;5022270;28;20033;-64
2024/03/08 11:49:48;;;;;;;1.83;0.70;;;;;;;;;;5028301;28;20048;-65
2024/03/08 11:52:19;;;;;;;2.05;0.70;;;;;;;;;;5027942;28;20412;-64
2024/03/08 11:54:50;;;;;;;1.58;0.80;;;;;;;;;;5026723;28;20608;-64
2024/03/08 11:57:23;;;;;;;2.53;0.90;;;;;;;;;;5026913;28;20066;-65
2024/03/08 11:59:58;;;;;;;2.15;0.82;;;;;;;;;;5022438;28;20053;-66
2024/03/08 12:02:27;;;;;;;1.75;0.93;;;;;;;;;;5027484;28;20473;-64
2024/03/08 12:04:56;;;;;;;1.80;0.87;;;;;;;;;;5027292;28;20123;-64
2024/03/08 12:07:21;;;;;;;1.58;0.88;;;;;;;;;;5027822;28;20284;-63
2024/03/08 12:10:12;;;;;;;4.05;0.90;;;;;;;;;;5028856;28;20068;-65
2024/03/08 12:12:37;;;;;;;;;;;;;;;;;;5029038;28;20039;-63
2024/03/08 12:15:04;;;;;;;1.10;0.60;;;;;;;;;;5024344;28;20003;-63
2024/03/08 12:17:33;;;;;;;1.13;0.60;;;;;;;;;;5028361;28;20049;-65
2024/03/08 12:19:58;;;;;;;1.77;0.80;;;;;;;;;;5027210;28;20595;-64
2024/03/08 12:22:26;;;;;;;2.50;0.82;;;;;;;;;;5026519;28;20472;-64
2024/03/08 12:25:10;;;;;;;1.92;1.00;;;;;;;;;;5028412;28;20033;-64
2024/03/08 12:27:37;;;;;;;2.05;0.70;;;;;;;;;;5028921;28;20037;-66
2024/03/08 12:30:37;;;;;;;1.92;0.77;;;;;;;;;;5028155;28;20073;-63
2024/03/08 12:33:03;;;;;;;1.50;0.63;;;;;;;;;;4983979;28;20140;-69
2024/03/08 12:35:29;;;;;;;2.10;0.70;;;;;;;;;;5027219;28;20124;-65
2024/03/08 12:37:56;;;;;;;1.42;0.80;;;;;;;;;;5028632;28;20069;-65
2024/03/08 12:40:28;;;;;;;1.10;0.73;;;;;;;;;;5028199;28;20038;-63
2024/03/08 12:42:54;;;;;;;2.75;0.77;;;;;;;;;;5022580;28;20444;-68
2024/03/08 12:45:21;;;;;;;2.90;0.90;;;;;;;;;;5021162;28;20022;-65
2024/03/08 12:47:53;;;;;;;2.88;0.85;;;;;;;;;;5022884;28;20026;-65
2024/03/08 12:50:18;;;;;;;2.58;0.73;;;;;;;;;;5031277;28;20443;-66
2024/03/08 12:52:53;;;;;;;2.50;0.90;;;;;;;;;;5031756;28;20021;-63
2024/03/08 12:55:18;;;;;;;2.67;0.93;;;;;;;;;;5030986;28;20029;-62
2024/03/08 12:57:44;;;;;;;3.05;1.10;;;;;;;;;;5024130;28;20045;-63
2024/03/08 13:00:13;;;;;;;4.25;0.75;;;;;;;;;;5018874;28;20083;-63
2024/03/08 13:02:42;;;;;;;3.35;0.95;;;;;;;;;;5017865;28;20038;-64
2024/03/08 13:05:09;;;;;;;1.77;0.70;;;;;;;;;;5016563;28;20851;-65
2024/03/08 13:07:34;;;;;;;1.83;0.73;;;;;;;;;;5021797;28;20037;-64
2024/03/08 13:10:00;;;;;;;1.90;0.90;;;;;;;;;;5031994;28;20065;-64
2024/03/08 13:12:25;;;;;;;2.08;0.80;;;;;;;;;;5030601;28;20037;-66
2024/03/08 13:14:50;;;;;;;1.08;0.60;;;;;;;;;;5028921;28;20037;-65
2024/03/08 13:17:18;;;;;;;2.85;0.93;;;;;;;;;;5032848;28;20033;-66
2024/03/08 13:19:43;;;;;;;3.08;0.93;;;;;;;;;;5031735;28;20045;-65
2024/03/08 13:22:16;;;;;;;2.30;0.90;;;;;;;;;;5031348;28;20416;-66
2024/03/08 13:24:45;;;;;;;3.72;0.80;;;;;;;;;;5030773;28;20077;-64
2024/03/08 13:27:25;;;;;;;3.33;1.10;;;;;;;;;;5030261;28;20057;-64
2024/03/08 13:29:50;;;;;;;;;;;;;;;;;;5028748;28;20033;-63
2024/03/08 13:32:15;;;;;;;4.60;0.90;;;;;;;;;;5027238;28;19923;-66
2024/03/08 13:34:41;;;;;;;1.23;0.60;;;;;;;;;;5030447;28;20045;-65
2024/03/08 13:37:07;;;;;;;2.17;0.68;;;;;;;;;;5029524;28;20041;-66
2024/03/08 13:39:40;;;;;;;2.75;0.73;;;;;;;;;;5027835;28;20056;-63
2024/03/08 13:42:09;;;;;;;1.98;0.77;;;;;;;;;;5026984;28;20108;-64
2024/03/08 13:44:35;;;;;;;2.10;0.90;;;;;;;;;;5031512;28;20084;-63
2024/03/08 13:47:04;;;;;;;3.80;0.93;;;;;;;;;;5029321;28;20100;-65
2024/03/08 13:49:29;;;;;;;1.80;0.70;;;;;;;;;;5024573;28;20037;-63
2024/03/08 13:51:54;;;;;;;3.13;0.68;;;;;;;;;;5024317;28;20034;-64
2024/03/08 13:54:23;;;;;;;1.55;0.70;;;;;;;;;;5026027;28;20037;-64
2024/03/08 13:56:49;;;;;;;1.30;0.70;;;;;;;;;;5029919;28;20060;-63
2024/03/08 13:59:14;;;;;;;1.92;0.70;;;;;;;;;;5028818;28;20451;-64
2024/03/08 14:01:40;;;;;;;2.38;0.73;;;;;;;;;;5033625;28;20017;-62
2024/03/08 14:04:05;;;;;;;2.63;0.80;;;;;;;;;;5031837;28;20118;-62
2024/03/08 14:06:30;;;;;;;1.42;0.70;;;;;;;;;;5028071;28;20065;-64
2024/03/08 14:08:57;;;;;;;1.65;0.63;;;;;;;;;;5025885;28;20052;-63
2024/03/08 14:11:26;;;;;;;1.83;0.90;;;;;;;;;;5030032;28;20040;-63
2024/03/08 14:13:52;;;;;;;1.90;0.90;;;;;;;;;;5030631;28;20043;-62
2024/03/08 14:16:17;;;;;;;3.38;0.90;;;;;;;;;;5029436;28;20120;-62
2024/03/08 14:18:42;;;;;;;1.58;0.80;;;;;;;;;;5031832;28;20095;-62
2024/03/08 14:21:10;;;;;;;1.38;0.90;;;;;;;;;;5029647;28;20037;-63
2024/03/08 14:23:36;;;;;;;1.48;0.80;;;;;;;;;;5030816;28;20875;-62
2024/03/08 14:26:02;;;;;;;1.95;0.80;;;;;;;;;;5029775;28;20068;-63
2024/03/08 14:28:27;;;;;;;1.30;0.90;;;;;;;;;;5026860;28;20041;-61
2024/03/08 14:30:53;;;;;;;2.55;0.80;;;;;;;;;;5031115;28;20044;-64
2024/03/08 14:33:18;;;;;;;1.38;0.93;;;;;;;;;;5030944;28;20034;-63
2024/03/08 14:35:44;;;;;;;1.05;0.70;;;;;;;;;;5031103;28;20179;-63
2024/03/08 14:38:10;;;;;;;2.05;1.10;;;;;;;;;;5029646;28;20190;-63
2024/03/08 14:40:36;;;;;;;1.83;1.10;;;;;;;;;;5029362;28;20059;-63
2024/03/08 14:43:01;;;;;;;2.42;0.88;;;;;;;;;;5031077;28;20114;-62
2024/03/08 14:45:26;;;;;;;1.70;1.00;;;;;;;;;;5029541;28;20026;-63
2024/03/08 14:47:52;;;;;;;2.78;0.80;;;;;;;;;;5030044;28;20045;-64